LICC Airport Information

Runway Information
Runway 08 Length 7989 ft width 148 ft
Elevation 37 ft Threshold 312 ft Heading 84
Runway 26 Length 7989 ft Width 148 ft
Elevation 17 ft Threshold 279 ft Heading 264
Airport Frequencies
Type APP Name APP Frequency 119.25 MHZ
Type DIR Name DIRECTOR Frequency 120.8 MHZ
Type GND Name GND Frequency 129.725 MHZ
Type TWR Name TWR Frequency 118.7 MHZ
Airport Navaids
Type NDB Name Catania Frequency 345 KHZ
Type VOR-DME Name Catania Fontanarossa Frequency 116250 KHZ
Type NDB Name Catania Fontanarossa Frequency 407 KHZ
Airport Weather Information & NOTAM
ADDS - METARS form results

(2005 UTC 18 January 2020)
Data provider http://aviationweather.gov/metar/data/
 
METAR text: LICC 181950Z 26005KT 230V310 9999 SCT090 11/04 Q1023
Conditions at: LICC (CATANIA/FONTANAR, IT) observed 1950 UTC 18 January 2020
Temperature: 11.0°C (52°F)
Dewpoint: 4.0°C (39°F) [RH = 62%]
Pressure (altimeter): 30.21 inches Hg (1023.0 mb)
Winds: from the W (260 degrees) at 6 MPH (5 knots; 2.6 m/s)
Visibility: 6 or more miles (10+ km)
Ceiling: at least 12,000 feet AGL
Clouds: scattered clouds at 9000 feet AGL
Weather: no significant weather observed at this time

METAR text: LICC 181920Z 29009KT 9999 SCT090 12/04 Q1023
Conditions at: LICC (CATANIA/FONTANAR, IT) observed 1920 UTC 18 January 2020
Temperature: 12.0°C (54°F)
Dewpoint: 4.0°C (39°F) [RH = 58%]
Pressure (altimeter): 30.21 inches Hg (1023.0 mb)
Winds: from the WNW (290 degrees) at 10 MPH (9 knots; 4.6 m/s)
Visibility: 6 or more miles (10+ km)
Ceiling: at least 12,000 feet AGL
Clouds: scattered clouds at 9000 feet AGL
Weather: no significant weather observed at this time

Forecast for: LICC (CATANIA/FONTANAR, IT)
Text: TAF LICC 181700Z 1818/1918 25006KT 9999 SCT030
Forecast period: 1800 UTC 18 January 2020 to 0700 UTC 19 January 2020
Forecast type: FROM: standard forecast or significant change
Winds: from the WSW (250 degrees) at 7 MPH (6 knots; 3.1 m/s)
Visibility: 6 or more miles 10+ km)
Ceiling: at least 12,000 feet AGL
Clouds: scattered clouds at 3000 feet AGL
Weather: no significant weather forecast for this period
Text: BECMG 1907/1909 08010KT
Forecast period: 0700 to 1800 UTC 19 January 2020
Forecast type: BECOMING: Conditions expected to become as follows by 0900 UTC 19 January 2020
Winds: from the E (80 degrees) at 12 MPH (10 knots; 5.1 m/s)
Visibility: 6 or more miles 10+ km)
Ceiling: at least 12,000 feet AGL
Clouds: scattered clouds at 3000 feet AGL
Weather: no significant weather forecast for this period